createdAt,value
2018-05-12T00:00:05.631Z,1011.91
2018-05-12T00:01:05.538Z,1011.89
2018-05-12T00:02:05.514Z,1011.88
2018-05-12T00:03:05.647Z,1011.88
2018-05-12T00:04:05.541Z,1011.83
2018-05-12T00:05:05.813Z,1011.88
2018-05-12T00:06:05.464Z,1011.86
2018-05-12T00:07:05.442Z,1011.87
2018-05-12T00:08:05.440Z,1011.91
2018-05-12T00:09:05.463Z,1011.88
2018-05-12T00:10:05.451Z,1011.90
2018-05-12T00:11:05.442Z,1011.87
2018-05-12T00:12:05.680Z,1011.88
2018-05-12T00:13:05.357Z,1011.86
2018-05-12T00:14:05.351Z,1011.87
2018-05-12T00:15:05.441Z,1011.87
2018-05-12T00:16:05.476Z,1011.86
2018-05-12T00:17:05.310Z,1011.84
2018-05-12T00:18:05.596Z,1011.85
2018-05-12T00:19:05.275Z,1011.86
2018-05-12T00:20:05.271Z,1011.85
2018-05-12T00:21:05.246Z,1011.86
2018-05-12T00:22:05.341Z,1011.85
2018-05-12T00:23:05.269Z,1011.84
2018-05-12T00:24:05.509Z,1011.83
2018-05-12T00:25:05.196Z,1011.86
2018-05-12T00:26:05.183Z,1011.82
2018-05-12T00:27:05.166Z,1011.79
2018-05-12T00:28:05.256Z,1011.79
2018-05-12T00:29:05.195Z,1011.81
2018-05-12T00:30:05.475Z,1011.77
2018-05-12T00:31:05.103Z,1011.77
2018-05-12T00:32:05.096Z,1011.77
2018-05-12T00:33:05.082Z,1011.72
2018-05-12T00:34:05.165Z,1011.79
2018-05-12T00:35:05.154Z,1011.76
2018-05-12T00:36:05.493Z,1011.80
2018-05-12T00:37:05.017Z,1011.78
2018-05-12T00:38:05.090Z,1011.81
2018-05-12T00:39:05.096Z,1011.81
2018-05-12T00:40:05.065Z,1011.79
2018-05-12T00:41:05.054Z,1011.81
2018-05-12T00:42:05.560Z,1011.76
2018-05-12T00:43:05.170Z,1011.77
2018-05-12T00:44:04.969Z,1011.74
2018-05-12T00:45:04.905Z,1011.75
2018-05-12T00:46:04.900Z,1011.76
2018-05-12T00:47:04.880Z,1011.73
2018-05-12T00:48:05.163Z,1011.72
2018-05-12T00:49:04.898Z,1011.78
2018-05-12T00:50:04.942Z,1011.76
2018-05-12T00:51:04.902Z,1011.73
2018-05-12T00:52:04.817Z,1011.72
2018-05-12T00:53:04.885Z,1011.73
2018-05-12T00:54:05.165Z,1011.75
2018-05-12T00:55:04.954Z,1011.72
2018-05-12T00:56:04.901Z,1011.74
2018-05-12T00:57:04.745Z,1011.69
2018-05-12T00:58:04.743Z,1011.69
2018-05-12T00:59:04.721Z,1011.73
2018-05-12T01:00:04.692Z,1011.65
2018-05-12T01:01:04.984Z,1011.68
2018-05-12T01:02:04.713Z,1011.64
2018-05-12T01:03:05.069Z,1011.66
2018-05-12T01:04:04.693Z,1011.62
2018-05-12T01:05:04.633Z,1011.60
2018-05-12T01:06:04.610Z,1011.58
2018-05-12T01:07:04.680Z,1011.60
2018-05-12T01:08:05.013Z,1011.59
2018-05-12T01:09:04.707Z,1011.62
2018-05-12T01:10:04.670Z,1011.58
2018-05-12T01:11:04.549Z,1011.57
2018-05-12T01:12:04.531Z,1011.56
2018-05-12T01:13:04.516Z,1011.54
2018-05-12T01:14:04.601Z,1011.54
2018-05-12T01:15:04.829Z,1011.54
2018-05-12T01:16:04.522Z,1011.47
2018-05-12T01:17:04.530Z,1011.47
2018-05-12T01:18:04.436Z,1011.44
2018-05-12T01:19:04.510Z,1011.47
2018-05-12T01:20:04.646Z,1011.43
2018-05-12T01:21:04.477Z,1011.41
2018-05-12T01:22:04.876Z,1011.37
2018-05-12T01:23:04.456Z,1011.38
2018-05-12T01:24:04.353Z,1011.40
2018-05-12T01:25:04.347Z,1011.35
2018-05-12T01:26:04.377Z,1011.39
2018-05-12T01:27:04.408Z,1011.36
2018-05-12T01:28:04.307Z,1011.40
2018-05-12T01:29:04.590Z,1011.41
2018-05-12T01:30:04.275Z,1011.40
2018-05-12T01:32:04.288Z,1011.41
2018-05-12T01:33:04.276Z,1011.40
2018-05-12T01:34:04.218Z,1011.35
2018-05-12T01:35:04.204Z,1011.37
2018-05-12T01:36:04.484Z,1011.37
2018-05-12T01:37:04.179Z,1011.40
2018-05-12T01:38:04.218Z,1011.41
2018-05-12T01:39:04.191Z,1011.42
2018-05-12T01:40:04.135Z,1011.43
2018-05-12T01:41:04.113Z,1011.41
2018-05-12T01:42:04.103Z,1011.40
2018-05-12T01:43:04.393Z,1011.38
2018-05-12T01:44:04.127Z,1011.38
2018-05-12T01:45:04.113Z,1011.38
2018-05-12T01:46:04.104Z,1011.40
2018-05-12T01:48:04.216Z,1011.40
2018-05-12T01:49:04.011Z,1011.38
2018-05-12T01:50:04.289Z,1011.36
2018-05-12T01:52:04.065Z,1011.39
2018-05-12T01:54:04.089Z,1011.40
2018-05-12T01:55:03.932Z,1011.41
2018-05-12T01:56:04.203Z,1011.43
2018-05-12T01:57:03.894Z,1011.41
2018-05-12T01:58:03.880Z,1011.44
2018-05-12T01:59:03.869Z,1011.43
2018-05-12T02:00:03.912Z,1011.42
2018-05-12T02:01:03.941Z,1011.41
2018-05-12T02:02:04.126Z,1011.39
2018-05-12T02:03:03.810Z,1011.39
2018-05-12T02:04:03.792Z,1011.36
2018-05-12T02:05:03.786Z,1011.41
2018-05-12T02:06:03.873Z,1011.37
2018-05-12T02:07:03.899Z,1011.36
2018-05-12T02:08:04.037Z,1011.39
2018-05-12T02:09:03.729Z,1011.37
2018-05-12T02:10:03.723Z,1011.38
2018-05-12T02:11:03.702Z,1011.39
2018-05-12T02:12:03.679Z,1011.38
2018-05-12T02:13:03.722Z,1011.39
2018-05-12T02:14:04.022Z,1011.38
2018-05-12T02:15:03.750Z,1011.36
2018-05-12T02:16:03.622Z,1011.39
2018-05-12T02:18:03.598Z,1011.38
2018-05-12T02:19:03.688Z,1011.40
2018-05-12T02:20:03.922Z,1011.36
2018-05-12T02:22:03.596Z,1011.40
2018-05-12T02:23:03.538Z,1011.36
2018-05-12T02:24:03.512Z,1011.37
2018-05-12T02:25:03.512Z,1011.40
2018-05-12T02:26:03.989Z,1011.38
2018-05-12T02:27:03.470Z,1011.36
2018-05-12T02:28:03.464Z,1011.38
2018-05-12T02:29:03.450Z,1011.37
2018-05-12T02:30:03.440Z,1011.35
2018-05-12T02:31:03.413Z,1011.36
2018-05-12T02:32:03.449Z,1011.36
2018-05-12T02:33:04.947Z,1011.37
2018-05-12T02:34:03.480Z,1011.41
2018-05-12T02:35:03.373Z,1011.40
2018-05-12T02:36:03.343Z,1011.40
2018-05-12T02:37:03.328Z,1011.46
2018-05-12T02:38:03.418Z,1011.43
2018-05-12T02:39:03.402Z,1011.39
2018-05-12T02:40:03.814Z,1011.39
2018-05-12T02:41:03.496Z,1011.39
2018-05-12T02:42:03.267Z,1011.36
2018-05-12T02:43:03.258Z,1011.38
2018-05-12T02:44:03.329Z,1011.38
2018-05-12T02:45:03.265Z,1011.38
2018-05-12T02:46:03.338Z,1011.40
2018-05-12T02:47:03.501Z,1011.38
2018-05-12T02:48:03.268Z,1011.41
2018-05-12T02:49:03.245Z,1011.43
2018-05-12T02:50:03.152Z,1011.41
2018-05-12T02:51:03.181Z,1011.42
2018-05-12T02:52:03.253Z,1011.43
2018-05-12T02:53:03.232Z,1011.41
2018-05-12T02:54:03.395Z,1011.45
2018-05-12T02:55:03.092Z,1011.43
2018-05-12T02:56:03.068Z,1011.46
2018-05-12T02:57:03.046Z,1011.49
2018-05-12T02:58:03.137Z,1011.48
2018-05-12T02:59:03.065Z,1011.45
2018-05-12T03:00:03.062Z,1011.43
2018-05-12T03:01:03.391Z,1011.45
2018-05-12T03:02:02.993Z,1011.47
2018-05-12T03:03:02.959Z,1011.49
2018-05-12T03:04:03.054Z,1011.43
2018-05-12T03:06:03.018Z,1011.43
2018-05-12T03:07:03.020Z,1011.40
2018-05-12T03:08:03.191Z,1011.39
2018-05-12T03:09:02.876Z,1011.37
2018-05-12T03:10:03.110Z,1011.41
2018-05-12T03:11:02.847Z,1011.41
2018-05-12T03:12:02.843Z,1011.41
2018-05-12T03:14:03.102Z,1011.38
2018-05-12T03:15:02.803Z,1011.39
2018-05-12T03:16:02.920Z,1011.37
2018-05-12T03:18:02.795Z,1011.39
2018-05-12T03:19:03.009Z,1011.37
2018-05-12T03:20:03.194Z,1011.38
2018-05-12T03:21:02.843Z,1011.41
2018-05-12T03:22:02.866Z,1011.38
2018-05-12T03:23:02.783Z,1011.41
2018-05-12T03:24:02.767Z,1011.37
2018-05-12T03:25:03.598Z,1011.40
2018-05-12T03:26:02.951Z,1011.35
2018-05-12T03:27:02.616Z,1011.33
2018-05-12T03:28:02.703Z,1011.36
2018-05-12T03:29:02.594Z,1011.39
2018-05-12T03:30:02.580Z,1011.37
2018-05-12T03:31:02.615Z,1011.38
2018-05-12T03:33:02.968Z,1011.40
2018-05-12T03:34:02.517Z,1011.37
2018-05-12T03:35:02.501Z,1011.37
2018-05-12T03:36:02.491Z,1011.33
2018-05-12T03:37:02.533Z,1011.34
2018-05-12T03:38:02.594Z,1011.34
2018-05-12T03:39:02.751Z,1011.33
2018-05-12T03:40:02.750Z,1011.39
2018-05-12T03:41:02.426Z,1011.38
2018-05-12T03:42:02.415Z,1011.38
2018-05-12T03:43:02.598Z,1011.39
2018-05-12T03:44:02.421Z,1011.36
2018-05-12T03:45:02.359Z,1011.40
2018-05-12T03:51:02.741Z,1011.45
2018-05-12T03:52:02.256Z,1011.48
2018-05-12T03:53:02.247Z,1011.46
2018-05-12T03:54:02.347Z,1011.42
2018-05-12T03:55:02.327Z,1011.45
2018-05-12T03:56:02.332Z,1011.43
2018-05-12T03:57:02.709Z,1011.40
2018-05-12T03:58:02.398Z,1011.41
2018-05-12T03:59:02.330Z,1011.42
2018-05-12T04:00:02.213Z,1011.39
2018-05-12T04:01:02.128Z,1011.41
2018-05-12T04:02:02.115Z,1011.44
2018-05-12T04:03:02.210Z,1011.44
2018-05-12T04:04:02.550Z,1011.41
2018-05-12T04:05:02.089Z,1011.44
2018-05-12T04:06:02.066Z,1011.45
2018-05-12T04:07:02.055Z,1011.44
2018-05-12T04:08:02.131Z,1011.48
2018-05-12T04:09:02.318Z,1011.45
2018-05-12T04:10:02.186Z,1011.43
2018-05-12T04:11:02.379Z,1011.42
2018-05-12T04:12:01.976Z,1011.42
2018-05-12T04:13:01.963Z,1011.41
2018-05-12T04:14:02.060Z,1011.38
2018-05-12T04:15:02.125Z,1011.43
2018-05-12T04:16:02.056Z,1011.40
2018-05-12T04:17:01.908Z,1011.39
2018-05-12T04:18:02.194Z,1011.39
2018-05-12T04:19:01.986Z,1011.42
2018-05-12T04:20:01.951Z,1011.42
2018-05-12T04:21:02.037Z,1011.39
2018-05-12T04:22:01.931Z,1011.46
2018-05-12T04:23:01.826Z,1011.45
2018-05-12T04:24:01.801Z,1011.42
2018-05-12T04:25:02.112Z,1011.48
2018-05-12T04:26:01.859Z,1011.47
2018-05-12T04:27:01.898Z,1011.44
2018-05-12T04:28:01.876Z,1011.47
2018-05-12T04:29:01.816Z,1011.48
2018-05-12T04:30:01.796Z,1011.49
2018-05-12T04:31:01.701Z,1011.53
2018-05-12T04:32:01.992Z,1011.54
2018-05-12T04:33:01.791Z,1011.55
2018-05-12T04:34:01.718Z,1011.51
2018-05-12T04:35:01.649Z,1011.52
2018-05-12T04:36:01.638Z,1011.50
2018-05-12T04:37:01.631Z,1011.53
2018-05-12T04:38:01.613Z,1011.52
2018-05-12T04:39:02.032Z,1011.51
2018-05-12T04:40:01.689Z,1011.51
2018-05-12T04:41:01.567Z,1011.50
2018-05-12T04:42:01.554Z,1011.54
2018-05-12T04:43:01.533Z,1011.49
2018-05-12T04:44:01.525Z,1011.55
2018-05-12T04:45:01.560Z,1011.55
2018-05-12T04:46:01.838Z,1011.56
2018-05-12T04:47:01.539Z,1011.58
2018-05-12T04:48:01.466Z,1011.56
2018-05-12T04:49:01.460Z,1011.51
2018-05-12T04:50:01.442Z,1011.51
2018-05-12T04:51:01.528Z,1011.54
2018-05-12T04:53:01.749Z,1011.55
2018-05-12T04:54:01.500Z,1011.55
2018-05-12T04:55:01.367Z,1011.55
2018-05-12T04:56:01.355Z,1011.55
2018-05-12T04:57:01.386Z,1011.55
2018-05-12T04:58:01.372Z,1011.59
2018-05-12T04:59:01.666Z,1011.61
2018-05-12T05:00:01.298Z,1011.58
2018-05-12T05:01:01.442Z,1011.59
2018-05-12T05:02:01.281Z,1011.59
2018-05-12T05:03:01.261Z,1011.58
2018-05-12T05:04:01.356Z,1011.63
2018-05-12T05:05:01.672Z,1011.68
2018-05-12T05:06:01.224Z,1011.69
2018-05-12T05:07:01.202Z,1011.73
2018-05-12T05:08:01.189Z,1011.77
2018-05-12T05:09:01.184Z,1011.72
2018-05-12T05:10:01.420Z,1011.70
2018-05-12T05:11:01.497Z,1011.76
2018-05-12T05:13:01.120Z,1011.79
2018-05-12T05:14:01.194Z,1011.77
2018-05-12T05:15:01.104Z,1011.78
2018-05-12T05:16:01.135Z,1011.77
2018-05-12T05:17:01.417Z,1011.78
2018-05-12T05:18:01.053Z,1011.80
2018-05-12T05:20:01.027Z,1011.78
2018-05-12T05:21:01.010Z,1011.78
2018-05-12T05:22:01.057Z,1011.82
2018-05-12T05:23:01.343Z,1011.81
2018-05-12T05:24:00.973Z,1011.77
2018-05-12T05:25:00.957Z,1011.82
2018-05-12T05:26:00.951Z,1011.80
2018-05-12T05:27:00.935Z,1011.82
2018-05-12T05:28:01.138Z,1011.82
2018-05-12T05:29:01.254Z,1011.78
2018-05-12T05:30:00.942Z,1011.79
2018-05-12T05:32:00.878Z,1011.80
2018-05-12T05:33:00.859Z,1011.78
2018-05-12T05:34:00.942Z,1011.83
2018-05-12T05:35:01.032Z,1011.82
2018-05-12T05:36:01.131Z,1011.82
2018-05-12T05:37:00.809Z,1011.84
2018-05-12T05:38:00.979Z,1011.86
2018-05-12T05:39:00.865Z,1011.86
2018-05-12T05:40:00.896Z,1011.88
2018-05-12T05:41:00.803Z,1011.92
2018-05-12T05:42:00.734Z,1011.91
2018-05-12T05:43:01.031Z,1011.95
2018-05-12T05:44:00.718Z,1011.97
2018-05-12T05:45:00.702Z,1011.97
2018-05-12T05:46:00.791Z,1011.99
2018-05-12T05:47:00.802Z,1012.01
2018-05-12T05:48:00.772Z,1011.99
2018-05-12T05:49:00.827Z,1012.02
2018-05-12T05:50:01.015Z,1011.98
2018-05-12T05:51:00.635Z,1012.00
2018-05-12T05:52:00.720Z,1012.03
2018-05-12T05:53:00.652Z,1012.00
2018-05-12T05:54:00.638Z,1012.00
2018-05-12T05:56:00.854Z,1011.98
2018-05-12T05:57:00.548Z,1011.96
2018-05-12T05:58:00.586Z,1012.00
2018-05-12T06:00:00.609Z,1011.96
2018-05-12T06:01:00.592Z,1011.95
2018-05-12T06:02:00.484Z,1011.98
2018-05-12T06:04:00.955Z,1011.94
2018-05-12T06:05:00.454Z,1011.94
2018-05-12T06:06:00.430Z,1012.00
2018-05-12T06:07:00.491Z,1012.00
2018-05-12T06:08:00.406Z,1011.98
2018-05-12T06:09:00.399Z,1012.03
2018-05-12T06:10:00.438Z,1012.00
2018-05-12T06:11:00.836Z,1011.96
2018-05-12T06:12:00.362Z,1011.97
2018-05-12T06:13:00.361Z,1011.97
2018-05-12T06:14:00.338Z,1011.99
2018-05-12T06:15:00.323Z,1012.03
2018-05-12T06:16:00.312Z,1012.02
2018-05-12T06:17:00.654Z,1012.00
2018-05-12T06:18:00.451Z,1012.02
2018-05-12T06:19:00.272Z,1012.03
2018-05-12T06:20:00.268Z,1012.06
2018-05-12T06:21:00.256Z,1012.11
2018-05-12T06:22:00.242Z,1012.09
2018-05-12T06:23:00.579Z,1012.12
2018-05-12T06:24:00.270Z,1012.13
2018-05-12T06:25:00.264Z,1012.16
2018-05-12T06:26:00.195Z,1012.17
2018-05-12T06:27:00.190Z,1012.19
2018-05-12T06:28:00.271Z,1012.21
2018-05-12T06:29:00.459Z,1012.19
2018-05-12T06:30:00.193Z,1012.16
2018-05-12T06:31:00.192Z,1012.18
2018-05-12T06:32:00.234Z,1012.21
2018-05-12T06:33:00.281Z,1012.19
2018-05-12T06:34:00.214Z,1012.23
2018-05-12T06:35:00.389Z,1012.24
2018-05-12T06:38:00.160Z,1012.33
2018-05-12T06:39:00.140Z,1012.36
2018-05-12T06:40:00.087Z,1012.40
2018-05-12T06:41:00.047Z,1012.30
2018-05-12T06:42:00.313Z,1012.33
2018-05-12T06:43:00.003Z,1012.31
2018-05-12T06:43:59.984Z,1012.32
2018-05-12T06:45:00.085Z,1012.36
2018-05-12T06:46:00.069Z,1012.36
2018-05-12T06:47:00.026Z,1012.38
2018-05-12T06:47:59.943Z,1012.35
2018-05-12T06:49:00.245Z,1012.36
2018-05-12T06:49:59.925Z,1012.41
2018-05-12T06:51:00.412Z,1012.37
2018-05-12T06:52:00.074Z,1012.37
2018-05-12T06:52:59.934Z,1012.37
2018-05-12T06:53:59.998Z,1012.41
2018-05-12T06:55:00.283Z,1012.36
2018-05-12T06:55:59.875Z,1012.37
2018-05-12T06:56:59.848Z,1012.37
2018-05-12T06:58:00.044Z,1012.35
2018-05-12T06:59:00.044Z,1012.36
2018-05-12T07:01:00.127Z,1012.40
2018-05-12T07:01:59.831Z,1012.39
2018-05-12T07:02:59.779Z,1012.40
2018-05-12T07:03:59.765Z,1012.40
2018-05-12T07:04:59.857Z,1012.43
2018-05-12T07:05:59.797Z,1012.42
2018-05-12T07:07:00.269Z,1012.43
2018-05-12T07:07:59.815Z,1012.47
2018-05-12T07:08:59.715Z,1012.45
2018-05-12T07:09:59.771Z,1012.45
2018-05-12T07:10:59.818Z,1012.44
2018-05-12T07:11:59.794Z,1012.44
2018-05-12T07:13:00.022Z,1012.44
2018-05-12T07:13:59.673Z,1012.52
2018-05-12T07:14:59.651Z,1012.54
2018-05-12T07:15:59.648Z,1012.60
2018-05-12T07:16:59.643Z,1012.58
2018-05-12T07:17:59.776Z,1012.55
2018-05-12T07:18:59.612Z,1012.57
2018-05-12T07:19:59.909Z,1012.64
2018-05-12T07:20:59.586Z,1012.71
2018-05-12T07:21:59.664Z,1012.74
2018-05-12T07:22:59.578Z,1013.05
2018-05-12T07:23:59.619Z,1013.12
2018-05-12T07:24:59.651Z,1013.21
2018-05-12T07:25:59.859Z,1012.99
2018-05-12T07:26:59.535Z,1013.25
2018-05-12T07:27:59.520Z,1012.90
2018-05-12T07:28:59.533Z,1012.82
2018-05-12T07:29:59.557Z,1012.81
2018-05-12T07:30:59.545Z,1012.86
2018-05-12T07:31:59.542Z,1012.95
2018-05-12T07:32:59.773Z,1012.92
2018-05-12T07:33:59.575Z,1013.29
2018-05-12T07:34:59.469Z,1013.07
2018-05-12T07:35:59.550Z,1013.03
2018-05-12T07:36:59.548Z,1013.28
2018-05-12T07:37:59.511Z,1013.05
2018-05-12T07:38:59.512Z,1013.55
2018-05-12T07:39:59.724Z,1014.50
2018-05-12T07:41:59.448Z,1013.64
2018-05-12T07:42:59.543Z,1013.60
2018-05-12T07:43:59.441Z,1013.72
2018-05-12T07:44:59.473Z,1013.52
2018-05-12T07:45:59.665Z,1013.58
2018-05-12T07:46:59.355Z,1013.45
2018-05-12T07:47:59.604Z,1013.38
2018-05-12T07:48:59.348Z,1014.57
2018-05-12T07:49:59.326Z,1012.89
2018-05-12T07:50:59.330Z,1013.74
2018-05-12T07:51:59.609Z,1013.47
2018-05-12T07:52:59.312Z,1014.66
2018-05-12T07:53:59.394Z,1014.69
2018-05-12T07:54:59.334Z,1013.73
2018-05-12T07:56:04.194Z,1014.97
2018-05-12T07:56:59.323Z,1015.54
2018-05-12T07:57:59.568Z,1015.98
2018-05-12T07:58:59.264Z,1016.62
2018-05-12T07:59:59.305Z,1016.29
2018-05-12T08:00:59.238Z,1018.49
2018-05-12T08:01:59.364Z,1015.62
2018-05-12T08:02:59.329Z,1014.38
2018-05-12T08:03:59.521Z,1013.55
2018-05-12T08:05:59.221Z,1017.76
2018-05-12T08:06:59.252Z,1014.79
2018-05-12T08:07:59.260Z,1015.49
2018-05-12T08:08:59.231Z,1014.90
2018-05-12T08:09:59.522Z,1014.91
2018-05-12T08:10:59.163Z,1016.01
2018-05-12T08:11:59.170Z,1013.73
2018-05-12T08:12:59.155Z,1013.25
2018-05-12T08:13:59.192Z,1013.13
2018-05-12T08:14:59.245Z,1013.83
2018-05-12T08:15:59.621Z,1014.52
2018-05-12T08:16:59.130Z,1016.93
2018-05-12T08:17:59.130Z,1015.88
2018-05-12T08:18:59.111Z,1013.86
2018-05-12T08:19:59.108Z,1013.82
2018-05-12T08:20:59.205Z,1013.85
2018-05-12T08:21:59.498Z,1013.86
2018-05-12T08:22:59.083Z,1014.97
2018-05-12T08:23:59.089Z,1019.58
2018-05-12T08:24:59.066Z,1016.09
2018-05-12T08:25:59.069Z,1015.59
2018-05-12T08:26:59.649Z,1014.90
2018-05-12T08:27:59.398Z,1014.14
2018-05-12T08:28:59.041Z,1013.28
2018-05-12T08:29:59.030Z,1013.68
2018-05-12T08:30:59.290Z,1014.54
2018-05-12T08:31:59.027Z,1013.08
2018-05-12T08:32:59.066Z,1017.75
2018-05-12T08:33:59.364Z,1013.45
2018-05-12T08:34:59.009Z,1013.34
2018-05-12T08:35:58.991Z,1012.80
2018-05-12T08:36:58.991Z,1015.06
2018-05-12T08:37:58.995Z,1016.49
2018-05-12T08:38:59.281Z,1015.20
2018-05-12T08:39:59.272Z,1014.35
2018-05-12T08:40:58.962Z,1015.60
2018-05-12T08:41:58.980Z,1013.32
2018-05-12T08:42:58.958Z,1012.95
2018-05-12T08:43:58.959Z,1015.46
2018-05-12T08:44:59.442Z,1013.57
2018-05-12T08:45:59.271Z,1013.45
2018-05-12T08:46:58.937Z,1014.78
2018-05-12T08:47:58.927Z,1014.72
2018-05-12T08:48:58.933Z,1014.65
2018-05-12T08:49:59.362Z,1014.63
2018-05-12T08:50:59.143Z,1014.26
2018-05-12T08:51:59.351Z,1014.47
2018-05-12T08:52:58.896Z,1014.23
2018-05-12T08:53:59.131Z,1014.18
2018-05-12T08:54:58.899Z,1013.48
2018-05-12T08:55:58.937Z,1012.56
2018-05-12T08:56:58.985Z,1014.06
2018-05-12T08:57:59.463Z,1014.02
2018-05-12T08:58:58.873Z,1013.90
2018-05-12T08:59:58.868Z,1013.65
2018-05-12T09:00:58.875Z,1012.61
2018-05-12T09:01:58.868Z,1013.17
2018-05-12T09:02:58.863Z,1012.49
2018-05-12T09:03:58.947Z,1012.61
2018-05-12T09:04:59.407Z,1013.57
2018-05-12T09:05:58.851Z,1013.07
2018-05-12T09:06:58.955Z,1013.40
2018-05-12T09:07:58.842Z,1012.87
2018-05-12T09:08:58.834Z,1012.68
2018-05-12T09:09:58.875Z,1012.68
2018-05-12T09:10:59.177Z,1012.72
2018-05-12T09:11:58.880Z,1013.20
2018-05-12T09:12:58.920Z,1013.46
2018-05-12T09:13:58.894Z,1013.08
2018-05-12T09:15:58.909Z,1013.07
2018-05-12T09:17:02.374Z,1013.60
2018-05-12T09:17:58.809Z,1013.14
2018-05-12T09:18:58.841Z,1013.26
2018-05-12T09:20:58.811Z,1012.79
2018-05-12T09:21:59.359Z,1012.56
2018-05-12T09:22:58.846Z,1012.85
2018-05-12T09:23:59.111Z,1012.85
2018-05-12T09:24:58.776Z,1012.68
2018-05-12T09:26:59.014Z,1012.53
2018-05-12T09:27:58.986Z,1013.19
2018-05-12T09:28:58.910Z,1012.61
2018-05-12T09:29:59.161Z,1012.90
2018-05-12T09:30:58.754Z,1013.28
2018-05-12T09:31:58.890Z,1013.41
2018-05-12T09:32:59.727Z,1013.42
2018-05-12T09:33:58.790Z,1013.24
2018-05-12T09:34:58.768Z,1013.09
2018-05-12T09:35:59.096Z,1013.18
2018-05-12T09:36:58.734Z,1013.38
2018-05-12T09:37:58.770Z,1013.47
2018-05-12T09:38:58.874Z,1013.39
2018-05-12T09:39:58.866Z,1013.42
2018-05-12T09:40:58.882Z,1013.45
2018-05-12T09:41:59.032Z,1013.48
2018-05-12T09:43:59.501Z,1013.33
2018-05-12T09:44:58.726Z,1012.99
2018-05-12T09:45:58.726Z,1013.03
2018-05-12T09:46:58.818Z,1012.79
2018-05-12T09:47:58.768Z,1013.37
2018-05-12T09:48:59.972Z,1013.03
2018-05-12T09:49:58.789Z,1013.24
2018-05-12T09:50:58.801Z,1013.24
2018-05-12T09:51:58.711Z,1013.12
2018-05-12T09:52:58.702Z,1013.17
2018-05-12T09:53:58.705Z,1012.26
2018-05-12T09:54:59.056Z,1013.18
2018-05-12T09:55:58.803Z,1013.24
2018-05-12T09:56:58.707Z,1013.20
2018-05-12T09:57:58.714Z,1013.34
2018-05-12T09:58:58.699Z,1013.44
2018-05-12T09:59:58.707Z,1013.34
2018-05-12T10:00:59.173Z,1013.41
2018-05-12T10:01:58.705Z,1012.35
2018-05-12T10:02:58.806Z,1012.40
2018-05-12T10:03:58.744Z,1012.41
2018-05-12T10:04:58.706Z,1012.40
2018-05-12T10:05:58.707Z,1012.40
2018-05-12T10:06:59.004Z,1012.49
2018-05-12T10:07:58.699Z,1012.60
2018-05-12T10:08:58.764Z,1012.95
2018-05-12T10:09:58.796Z,1013.26
2018-05-12T10:10:58.748Z,1013.14
2018-05-12T10:11:58.689Z,1012.89
2018-05-12T10:12:59.000Z,1012.84
2018-05-12T10:13:58.708Z,1012.72
2018-05-12T10:14:58.787Z,1012.84
2018-05-12T10:16:01.207Z,1012.82
2018-05-12T10:16:58.696Z,1013.02
2018-05-12T10:17:58.689Z,1012.59
2018-05-12T10:18:58.991Z,1012.53
2018-05-12T10:19:58.690Z,1012.34
2018-05-12T10:20:58.686Z,1012.19
2018-05-12T10:21:58.741Z,1012.25
2018-05-12T10:22:58.789Z,1011.95
2018-05-12T10:23:58.906Z,1011.94
2018-05-12T10:24:58.699Z,1011.87
2018-05-12T10:25:58.994Z,1012.16
2018-05-12T10:26:58.690Z,1011.95
2018-05-12T10:27:58.787Z,1011.95
2018-05-12T10:29:00.007Z,1012.12
2018-05-12T10:29:58.679Z,1012.58
2018-05-12T10:30:58.685Z,1012.18
2018-05-12T10:31:58.989Z,1012.61
2018-05-12T10:32:58.787Z,1012.14
2018-05-12T10:33:58.829Z,1012.06
2018-05-12T10:34:58.808Z,1012.04
2018-05-12T10:35:58.678Z,1012.06
2018-05-12T10:36:58.799Z,1012.05
2018-05-12T10:37:58.687Z,1012.07
2018-05-12T10:38:59.016Z,1012.40
2018-05-12T10:39:58.721Z,1012.39
2018-05-12T10:40:58.726Z,1012.53
2018-05-12T10:43:58.686Z,1011.96
2018-05-12T10:44:58.967Z,1012.05
2018-05-12T10:45:58.774Z,1012.14
2018-05-12T10:46:58.762Z,1011.72
2018-05-12T10:47:58.768Z,1011.63
2018-05-12T10:48:58.663Z,1012.41
2018-05-12T10:49:58.665Z,1012.47
2018-05-12T10:50:58.655Z,1011.81
2018-05-12T10:51:58.980Z,1011.84
2018-05-12T10:53:58.748Z,1011.86
2018-05-12T10:54:58.691Z,1011.83
2018-05-12T10:55:58.653Z,1011.78
2018-05-12T10:56:58.899Z,1011.83
2018-05-12T10:57:58.636Z,1011.84
2018-05-12T10:58:59.049Z,1011.79
2018-05-12T11:00:58.688Z,1011.69
2018-05-12T11:01:58.790Z,1011.71
2018-05-12T11:02:58.638Z,1011.66
2018-05-12T11:03:58.793Z,1011.59
2018-05-12T11:04:59.565Z,1011.56
2018-05-12T11:05:58.644Z,1011.54
2018-05-12T11:06:58.663Z,1012.33
2018-05-12T11:07:58.665Z,1011.88
2018-05-12T11:08:58.673Z,1012.33
2018-05-12T11:10:58.904Z,1012.21
2018-05-12T11:11:58.600Z,1012.16
2018-05-12T11:12:58.655Z,1012.15
2018-05-12T11:13:58.701Z,1012.01
2018-05-12T11:14:58.604Z,1012.01
2018-05-12T11:15:58.649Z,1011.94
2018-05-12T11:16:58.890Z,1011.61
2018-05-12T11:17:58.598Z,1011.90
2018-05-12T11:18:59.010Z,1011.35
2018-05-12T11:19:58.798Z,1011.37
2018-05-12T11:20:58.597Z,1011.40
2018-05-12T11:21:58.756Z,1011.47
2018-05-12T11:22:58.645Z,1011.33
2018-05-12T11:23:58.898Z,1011.31
2018-05-12T11:24:58.642Z,1011.34
2018-05-12T11:25:58.640Z,1011.33
2018-05-12T11:26:58.696Z,1011.27
2018-05-12T11:27:58.592Z,1011.27
2018-05-12T11:28:58.594Z,1011.31
2018-05-12T11:29:58.897Z,1011.35
2018-05-12T11:30:58.579Z,1011.48
2018-05-12T11:31:58.706Z,1011.41
2018-05-12T11:33:59.514Z,1011.41
2018-05-12T11:34:58.732Z,1011.31
2018-05-12T11:35:58.953Z,1011.28
2018-05-12T11:36:59.821Z,1011.25
2018-05-12T11:37:58.732Z,1011.25
2018-05-12T11:39:06.501Z,1011.30
2018-05-12T11:39:58.682Z,1011.28
2018-05-12T11:40:58.675Z,1011.25
2018-05-12T11:42:58.677Z,1011.37
2018-05-12T11:43:58.564Z,1011.41
2018-05-12T11:44:58.662Z,1011.51
2018-05-12T11:45:58.669Z,1011.39
2018-05-12T11:46:58.663Z,1011.31
2018-05-12T11:47:58.904Z,1011.28
2018-05-12T11:48:58.654Z,1011.29
2018-05-12T11:49:58.572Z,1011.30
2018-05-12T11:50:58.949Z,1011.21
2018-05-12T11:51:58.654Z,1011.25
2018-05-12T11:52:58.564Z,1011.25
2018-05-12T11:53:58.941Z,1011.32
2018-05-12T11:54:58.633Z,1011.35
2018-05-12T11:55:58.533Z,1011.60
2018-05-12T11:56:58.568Z,1011.65
2018-05-12T11:59:58.914Z,1011.19
2018-05-12T12:00:58.989Z,1011.10
2018-05-12T12:01:58.662Z,1011.04
2018-05-12T12:02:58.577Z,1011.05
2018-05-12T12:03:58.627Z,1011.08
2018-05-12T12:04:58.510Z,1011.10
2018-05-12T12:05:58.509Z,1011.06
2018-05-12T12:06:58.811Z,1011.11
2018-05-12T12:08:58.662Z,1011.03
2018-05-12T12:09:58.614Z,1010.93
2018-05-12T12:10:58.504Z,1011.07
2018-05-12T12:11:58.600Z,1011.29
2018-05-12T12:12:58.857Z,1011.20
2018-05-12T12:13:58.485Z,1011.12
2018-05-12T12:14:58.590Z,1011.10
2018-05-12T12:15:58.580Z,1011.17
2018-05-12T12:16:58.485Z,1011.15
2018-05-12T12:17:58.499Z,1011.11
2018-05-12T12:18:58.543Z,1011.07
2018-05-12T12:19:58.841Z,1011.17
2018-05-12T12:20:58.636Z,1011.09
2018-05-12T12:21:58.677Z,1011.04
2018-05-12T12:22:58.589Z,1010.90
2018-05-12T12:23:58.481Z,1010.84
2018-05-12T12:24:58.495Z,1010.83
2018-05-12T12:25:58.469Z,1010.85
2018-05-12T12:26:59.744Z,1010.84
2018-05-12T12:27:58.477Z,1010.87
2018-05-12T12:28:58.570Z,1010.89
2018-05-12T12:29:58.468Z,1011.20
2018-05-12T12:30:58.586Z,1010.87
2018-05-12T12:31:58.458Z,1010.82
2018-05-12T12:32:59.006Z,1010.81
2018-05-12T12:33:58.612Z,1010.81
2018-05-12T12:34:58.457Z,1010.83
2018-05-12T12:35:58.529Z,1010.79
2018-05-12T12:36:58.456Z,1010.81
2018-05-12T12:37:58.460Z,1010.89
2018-05-12T12:38:58.751Z,1010.71
2018-05-12T12:39:58.497Z,1010.64
2018-05-12T12:40:58.551Z,1010.59
2018-05-12T12:41:58.454Z,1010.61
2018-05-12T12:42:58.449Z,1010.61
2018-05-12T12:43:58.447Z,1010.68
2018-05-12T12:44:58.772Z,1010.82
2018-05-12T12:45:58.488Z,1010.71